createdAt,value
2017-12-11T00:01:58.223Z,97361.13
2017-12-11T00:04:25.684Z,97365.44
2017-12-11T00:06:53.137Z,97375.13
2017-12-11T00:09:20.612Z,97379.14
2017-12-11T00:11:48.068Z,97393.09
2017-12-11T00:14:15.625Z,97384.53
2017-12-11T00:16:43.068Z,97386.39
2017-12-11T00:19:10.537Z,97381.73
2017-12-11T00:21:38.010Z,97377.07
2017-12-11T00:24:05.472Z,97385.00
2017-12-11T00:26:32.911Z,97383.83
2017-12-11T00:29:00.377Z,97389.86
2017-12-11T00:31:27.850Z,97383.02
2017-12-11T00:33:55.296Z,97384.12
2017-12-11T00:36:22.785Z,97389.77
2017-12-11T00:38:50.242Z,97389.35
2017-12-11T00:41:17.720Z,97378.97
2017-12-11T00:43:45.169Z,97378.30
2017-12-11T00:46:12.658Z,97368.41
2017-12-11T00:48:40.127Z,97367.22
2017-12-11T00:51:07.633Z,97368.62
2017-12-11T00:53:35.111Z,97375.70
2017-12-11T00:56:02.614Z,97372.33
2017-12-11T00:58:30.119Z,97366.98
2017-12-11T01:00:57.547Z,97371.09
2017-12-11T01:03:24.987Z,97363.59
2017-12-11T01:05:52.459Z,97353.86
2017-12-11T01:08:19.899Z,97343.81
2017-12-11T01:10:47.339Z,97348.39
2017-12-11T01:13:14.805Z,97355.08
2017-12-11T01:15:42.276Z,97345.56
2017-12-11T01:18:09.774Z,97340.76
2017-12-11T01:20:37.248Z,97344.31
2017-12-11T01:23:04.710Z,97333.19
2017-12-11T01:25:32.148Z,97339.48
2017-12-11T01:27:59.614Z,97330.91
2017-12-11T01:30:27.056Z,97333.45
2017-12-11T01:32:54.512Z,97343.84
2017-12-11T01:35:21.964Z,97355.80
2017-12-11T01:37:49.748Z,97370.20
2017-12-11T01:40:17.184Z,97381.54
2017-12-11T01:42:44.657Z,97389.20
2017-12-11T01:45:12.095Z,97389.20
2017-12-11T01:47:39.571Z,97391.89
2017-12-11T01:50:07.020Z,97396.25
2017-12-11T01:52:34.459Z,97399.98
2017-12-11T01:55:01.944Z,97402.56
2017-12-11T01:57:29.500Z,97394.46
2017-12-11T01:59:56.956Z,97386.95
2017-12-11T02:02:24.392Z,97370.47
2017-12-11T02:04:51.852Z,97356.28
2017-12-11T02:07:19.287Z,97370.25
2017-12-11T02:09:46.743Z,97397.77
2017-12-11T02:12:14.187Z,97394.46
2017-12-11T02:14:41.643Z,97374.80
2017-12-11T02:17:09.082Z,97399.00
2017-12-11T02:19:36.563Z,97406.86
2017-12-11T02:22:03.993Z,97405.31
2017-12-11T02:24:31.442Z,97416.14
2017-12-11T02:26:58.878Z,97410.36
2017-12-11T02:29:26.352Z,97421.34
2017-12-11T02:31:53.800Z,97431.55
2017-12-11T02:34:21.243Z,97440.66
2017-12-11T02:36:48.696Z,97437.52
2017-12-11T02:39:16.134Z,97442.45
2017-12-11T02:41:43.620Z,97451.98
2017-12-11T02:44:11.056Z,97456.83
2017-12-11T02:46:38.516Z,97457.86
2017-12-11T02:49:05.952Z,97452.16
2017-12-11T02:51:33.411Z,97454.16
2017-12-11T02:54:00.855Z,97452.31
2017-12-11T02:56:28.315Z,97447.36
2017-12-11T02:58:55.758Z,97435.48
2017-12-11T03:01:23.220Z,97437.83
2017-12-11T03:03:50.666Z,97435.38
2017-12-11T03:06:18.126Z,97436.08
2017-12-11T03:08:45.559Z,97440.67
2017-12-11T03:11:13.001Z,97444.19
2017-12-11T03:13:40.472Z,97450.22
2017-12-11T03:16:07.916Z,97454.00
2017-12-11T03:18:35.379Z,97448.92
2017-12-11T03:21:02.820Z,97441.17
2017-12-11T03:23:30.331Z,97430.00
2017-12-11T03:25:57.753Z,97430.73
2017-12-11T03:28:25.215Z,97419.60
2017-12-11T03:30:52.663Z,97424.81
2017-12-11T03:33:20.119Z,97425.47
2017-12-11T03:35:47.659Z,97416.95
2017-12-11T03:38:15.125Z,97398.62
2017-12-11T03:40:42.569Z,97388.72
2017-12-11T03:43:10.126Z,97375.23
2017-12-11T03:45:37.590Z,97378.40
2017-12-11T03:48:05.032Z,97371.23
2017-12-11T03:50:32.482Z,97367.89
2017-12-11T03:52:59.923Z,97365.73
2017-12-11T03:55:27.379Z,97354.33
2017-12-11T03:57:54.868Z,97349.38
2017-12-11T04:00:22.282Z,97345.86
2017-12-11T04:02:49.719Z,97337.52
2017-12-11T04:05:17.231Z,97333.09
2017-12-11T04:07:44.671Z,97328.87
2017-12-11T04:10:12.150Z,97324.44
2017-12-11T04:12:39.592Z,97311.91
2017-12-11T04:15:07.076Z,97309.17
2017-12-11T04:17:34.515Z,97297.50
2017-12-11T04:20:01.954Z,97300.09
2017-12-11T04:22:29.411Z,97288.51
2017-12-11T04:24:56.846Z,97296.14
2017-12-11T04:27:24.302Z,97293.77
2017-12-11T04:29:51.734Z,97289.34
2017-12-11T04:32:19.199Z,97286.33
2017-12-11T04:34:46.639Z,97284.58
2017-12-11T04:37:14.094Z,97283.45
2017-12-11T04:39:41.528Z,97285.09
2017-12-11T04:42:09.083Z,97281.80
2017-12-11T04:44:36.522Z,97267.53
2017-12-11T04:47:03.992Z,97259.06
2017-12-11T04:49:31.432Z,97245.80
2017-12-11T04:51:58.920Z,97241.03
2017-12-11T04:54:26.363Z,97237.14
2017-12-11T04:56:53.790Z,97235.04
2017-12-11T04:59:21.252Z,97231.15
2017-12-11T05:01:48.695Z,97233.78
2017-12-11T05:04:16.158Z,97235.80
2017-12-11T05:06:43.598Z,97239.24
2017-12-11T05:09:11.063Z,97236.29
2017-12-11T05:11:38.511Z,97229.76
2017-12-11T05:14:05.984Z,97229.45
2017-12-11T05:16:33.433Z,97219.73
2017-12-11T05:19:00.899Z,97214.69
2017-12-11T05:21:28.339Z,97218.18
2017-12-11T05:23:55.798Z,97212.91
2017-12-11T05:26:23.230Z,97204.11
2017-12-11T05:28:50.679Z,97210.47
2017-12-11T05:31:18.114Z,97197.22
2017-12-11T05:33:45.582Z,97191.43
2017-12-11T05:36:13.018Z,97180.77
2017-12-11T05:38:40.456Z,97175.13
2017-12-11T05:41:07.911Z,97176.78
2017-12-11T05:43:35.352Z,97175.09
2017-12-11T05:46:02.810Z,97173.60
2017-12-11T05:48:30.257Z,97179.55
2017-12-11T05:50:57.723Z,97175.27
2017-12-11T05:53:25.219Z,97158.64
2017-12-11T05:55:52.676Z,97166.19
2017-12-11T05:58:20.127Z,97169.20
2017-12-11T06:00:47.588Z,97163.89
2017-12-11T06:03:15.031Z,97159.52
2017-12-11T06:05:42.502Z,97160.23
2017-12-11T06:08:09.939Z,97159.91
2017-12-11T06:10:37.479Z,97158.45
2017-12-11T06:13:04.899Z,97157.25
2017-12-11T06:15:32.430Z,97152.64
2017-12-11T06:17:59.900Z,97154.78
2017-12-11T06:20:27.342Z,97152.34
2017-12-11T06:22:54.794Z,97145.80
2017-12-11T06:25:22.328Z,97155.03
2017-12-11T06:27:49.790Z,97155.31
2017-12-11T06:30:17.235Z,97151.77
2017-12-11T06:35:18.436Z,97142.31
2017-12-11T06:37:45.893Z,97140.52
2017-12-11T06:40:13.343Z,97134.39
2017-12-11T06:42:40.815Z,97124.30
2017-12-11T06:45:08.270Z,97117.65
2017-12-11T06:47:35.715Z,97121.13
2017-12-11T06:50:03.170Z,97119.81
2017-12-11T06:52:30.656Z,97114.02
2017-12-11T06:54:58.133Z,97091.21
2017-12-11T06:57:25.578Z,97094.38
2017-12-11T06:59:53.052Z,97104.30
2017-12-11T07:02:20.514Z,97097.23
2017-12-11T07:04:47.991Z,97094.64
2017-12-11T07:07:15.463Z,97101.98
2017-12-11T07:09:42.927Z,97095.39
2017-12-11T07:12:10.372Z,97110.00
2017-12-11T07:14:37.848Z,97103.30
2017-12-11T07:17:05.292Z,97110.59
2017-12-11T07:19:32.750Z,97110.42
2017-12-11T07:22:00.194Z,97115.08
2017-12-11T07:24:27.662Z,97113.81
2017-12-11T07:26:55.131Z,97120.16
2017-12-11T07:29:22.578Z,97106.84
2017-12-11T07:31:50.115Z,97100.98
2017-12-11T07:34:17.563Z,97104.89
2017-12-11T07:36:45.030Z,97106.27
2017-12-11T07:39:12.475Z,97097.03
2017-12-11T07:41:39.939Z,97098.52
2017-12-11T07:44:07.383Z,97090.39
2017-12-11T07:46:34.847Z,97094.93
2017-12-11T07:49:02.286Z,97100.31
2017-12-11T07:51:29.748Z,97087.53
2017-12-11T07:53:57.195Z,97086.38
2017-12-11T07:56:24.675Z,97070.23
2017-12-11T07:58:52.947Z,97068.48
2017-12-11T08:01:20.395Z,97068.63
2017-12-11T08:03:47.853Z,97069.96
2017-12-11T08:06:15.304Z,97057.19
2017-12-11T08:08:42.771Z,97050.11
2017-12-11T08:11:10.210Z,97051.80
2017-12-11T08:13:37.671Z,97041.87
2017-12-11T08:16:05.122Z,97045.88
2017-12-11T08:18:32.588Z,97041.14
2017-12-11T08:21:00.036Z,97044.99
2017-12-11T08:23:27.494Z,97014.45
2017-12-11T08:25:54.935Z,97025.28
2017-12-11T08:28:22.403Z,97018.52
2017-12-11T08:30:49.834Z,97017.52
2017-12-11T08:33:17.361Z,96998.67
2017-12-11T08:35:44.919Z,97006.95
2017-12-11T08:38:12.376Z,96995.08
2017-12-11T08:40:39.810Z,96988.51
2017-12-11T08:43:07.279Z,96991.15
2017-12-11T08:45:34.717Z,96983.65
2017-12-11T08:48:02.206Z,96982.53
2017-12-11T08:50:29.673Z,96970.07
2017-12-11T08:52:57.111Z,96972.50
2017-12-11T08:55:24.663Z,96985.70
2017-12-11T08:57:52.097Z,96994.48
2017-12-11T09:00:19.551Z,96987.53
2017-12-11T09:02:46.999Z,97007.31
2017-12-11T09:05:14.463Z,96986.30
2017-12-11T09:07:41.905Z,96950.30
2017-12-11T09:10:09.366Z,96976.27
2017-12-11T09:12:36.805Z,96962.95
2017-12-11T09:15:04.531Z,96958.03
2017-12-11T09:17:31.963Z,96972.73
2017-12-11T09:19:59.423Z,96975.77
2017-12-11T09:22:26.863Z,96966.81
2017-12-11T09:24:54.339Z,96964.84
2017-12-11T09:27:21.821Z,96950.42
2017-12-11T09:29:49.371Z,96939.59
2017-12-11T09:32:16.812Z,96944.91
2017-12-11T09:34:44.276Z,96943.74
2017-12-11T09:37:11.741Z,96941.59
2017-12-11T09:39:39.207Z,96934.98
2017-12-11T09:42:06.648Z,96926.22
2017-12-11T09:44:34.091Z,96921.66
2017-12-11T09:47:01.546Z,96915.78
2017-12-11T09:49:28.983Z,96909.12
2017-12-11T09:51:56.442Z,96890.64
2017-12-11T09:54:23.889Z,96886.52
2017-12-11T09:56:51.358Z,96881.17
2017-12-11T09:59:18.798Z,96877.30
2017-12-11T10:01:46.256Z,96886.21
2017-12-11T10:04:13.717Z,96896.22
2017-12-11T10:06:41.179Z,96891.83
2017-12-11T10:09:08.630Z,96872.66
2017-12-11T10:11:36.095Z,96866.89
2017-12-11T10:14:03.545Z,96852.67
2017-12-11T10:16:30.979Z,96837.86
2017-12-11T10:18:58.444Z,96842.72
2017-12-11T10:21:25.884Z,96838.53
2017-12-11T10:23:53.348Z,96844.97
2017-12-11T10:26:20.783Z,96848.76
2017-12-11T10:28:48.245Z,96854.75
2017-12-11T10:31:15.692Z,96839.20
2017-12-11T10:33:43.163Z,96835.55
2017-12-11T10:36:10.599Z,96820.59
2017-12-11T10:38:38.055Z,96805.49
2017-12-11T10:41:05.491Z,96799.03
2017-12-11T10:43:32.942Z,96788.08
2017-12-11T10:46:00.394Z,96786.11
2017-12-11T10:48:27.846Z,96794.95
2017-12-11T10:50:55.290Z,96785.16
2017-12-11T10:53:23.256Z,96774.47
2017-12-11T10:55:50.899Z,96770.27
2017-12-11T10:58:18.356Z,96771.69
2017-12-11T11:00:46.051Z,96767.32
2017-12-11T11:03:13.495Z,96768.87
2017-12-11T11:05:40.955Z,96768.03
2017-12-11T11:08:08.813Z,96764.02
2017-12-11T11:10:36.299Z,96752.42
2017-12-11T11:13:03.773Z,96755.36
2017-12-11T11:15:31.235Z,96756.52
2017-12-11T11:17:58.676Z,96758.84
2017-12-11T11:20:26.131Z,96756.33
2017-12-11T11:22:53.567Z,96748.52
2017-12-11T11:25:21.018Z,96738.42
2017-12-11T11:27:48.460Z,96737.23
2017-12-11T11:30:15.927Z,96745.02
2017-12-11T11:32:43.367Z,96741.17
2017-12-11T11:35:10.826Z,96731.32
2017-12-11T11:37:38.362Z,96735.47
2017-12-11T11:40:05.827Z,96745.33
2017-12-11T11:42:33.263Z,96742.90
2017-12-11T11:45:00.723Z,96739.41
2017-12-11T11:47:28.164Z,96755.48
2017-12-11T11:49:55.619Z,96749.39
2017-12-11T11:52:23.057Z,96750.25
2017-12-11T11:54:50.537Z,96744.00
2017-12-11T11:57:17.975Z,96753.59
2017-12-11T11:59:45.416Z,96766.34
2017-12-11T12:02:12.888Z,96778.35
2017-12-11T12:04:40.323Z,96780.41
2017-12-11T12:07:07.783Z,96789.06
2017-12-11T12:09:35.224Z,96799.09
2017-12-11T12:12:02.682Z,96829.45
2017-12-11T12:14:30.115Z,96847.96
2017-12-11T12:16:57.567Z,96848.20
2017-12-11T12:19:24.999Z,96820.00
2017-12-11T12:21:52.455Z,96817.47
2017-12-11T12:24:19.915Z,96813.83
2017-12-11T12:26:47.379Z,96824.52
2017-12-11T12:29:14.825Z,96861.98
2017-12-11T12:31:42.281Z,96880.31
2017-12-11T12:34:09.715Z,96878.41
2017-12-11T12:36:37.184Z,96867.28
2017-12-11T12:39:04.617Z,96856.41
2017-12-11T12:41:32.050Z,96845.61
2017-12-11T12:43:59.517Z,96833.70
2017-12-11T12:46:26.977Z,96838.94
2017-12-11T12:48:54.435Z,96837.95
2017-12-11T12:51:21.882Z,96833.48
2017-12-11T12:53:49.389Z,96839.11
2017-12-11T12:56:16.832Z,96830.22
2017-12-11T12:58:44.282Z,96840.33
2017-12-11T13:01:11.755Z,96835.22
2017-12-11T13:03:39.216Z,96801.03
2017-12-11T13:06:06.650Z,96802.12
2017-12-11T13:08:34.124Z,96791.75
2017-12-11T13:11:01.562Z,96802.23
2017-12-11T13:13:28.999Z,96822.27
2017-12-11T13:15:56.455Z,96822.73
2017-12-11T13:18:23.895Z,96824.66
2017-12-11T13:20:51.362Z,96815.16
2017-12-11T13:23:18.804Z,96812.24
2017-12-11T13:25:46.506Z,96831.23
2017-12-11T13:28:13.943Z,96843.94
2017-12-11T13:30:41.441Z,96873.28
2017-12-11T13:33:08.879Z,96889.47
2017-12-11T13:35:36.335Z,96893.63
2017-12-11T13:38:03.770Z,96915.69
2017-12-11T13:40:31.243Z,96910.41
2017-12-11T13:42:59.536Z,96925.80
2017-12-11T13:45:26.981Z,96942.08
2017-12-11T13:47:54.434Z,96911.53
2017-12-11T13:50:21.874Z,96872.69
2017-12-11T13:52:49.372Z,96866.11
2017-12-11T13:55:16.807Z,96836.74
2017-12-11T13:57:44.268Z,96810.23
2017-12-11T14:00:11.710Z,96803.39
2017-12-11T14:02:39.167Z,96810.55
2017-12-11T14:05:06.649Z,96820.48
2017-12-11T14:07:34.263Z,96826.03
2017-12-11T14:10:01.705Z,96829.31
2017-12-11T14:12:29.176Z,96830.17
2017-12-11T14:14:56.616Z,96803.05
2017-12-11T14:17:24.063Z,96822.92
2017-12-11T14:19:51.518Z,96839.73
2017-12-11T14:22:18.955Z,96835.04
2017-12-11T14:24:46.410Z,96827.38
2017-12-11T14:27:13.864Z,96852.00
2017-12-11T14:29:41.322Z,96831.61
2017-12-11T14:32:08.755Z,96843.59
2017-12-11T14:34:36.234Z,96827.28
2017-12-11T14:37:03.677Z,96822.80
2017-12-11T14:39:31.134Z,96797.39
2017-12-11T14:41:58.570Z,96770.52
2017-12-11T14:44:26.031Z,96748.12
2017-12-11T14:46:53.512Z,96748.92
2017-12-11T14:49:20.988Z,96758.00
2017-12-11T14:51:48.439Z,96776.56
2017-12-11T14:54:15.978Z,96785.21
2017-12-11T14:56:43.442Z,96837.69
2017-12-11T14:59:10.879Z,96847.45
2017-12-11T15:01:38.336Z,96858.88
2017-12-11T15:04:05.805Z,96870.38
2017-12-11T15:06:33.278Z,96869.23
2017-12-11T15:09:00.707Z,96878.14
2017-12-11T15:11:28.163Z,96899.77
2017-12-11T15:13:55.597Z,96912.31
2017-12-11T15:16:23.067Z,96919.02
2017-12-11T15:18:50.509Z,96924.58
2017-12-11T15:21:19.631Z,96918.86
2017-12-11T15:23:47.074Z,96933.62
2017-12-11T15:26:14.540Z,96932.00
2017-12-11T15:28:42.123Z,96932.89
2017-12-11T15:31:09.610Z,96937.31
2017-12-11T15:33:37.252Z,96944.87
2017-12-11T15:36:04.793Z,96944.99
2017-12-11T15:38:32.378Z,96942.47
2017-12-11T15:40:59.835Z,96949.80
2017-12-11T15:43:27.324Z,96959.00
2017-12-11T15:45:54.834Z,96952.98
2017-12-11T15:48:22.316Z,96951.23
2017-12-11T15:50:49.754Z,96956.59
2017-12-11T15:53:17.215Z,96945.72
2017-12-11T15:55:44.652Z,96942.23
2017-12-11T15:58:12.115Z,96928.98
2017-12-11T16:00:39.555Z,96939.13
2017-12-11T16:03:07.000Z,96952.98
2017-12-11T16:05:34.476Z,96974.77
2017-12-11T16:08:01.917Z,96966.64
2017-12-11T16:10:29.389Z,96955.70
2017-12-11T16:12:56.847Z,96959.25
2017-12-11T16:15:24.318Z,96952.98
2017-12-11T16:17:51.760Z,96950.55
2017-12-11T16:20:19.224Z,96946.87
2017-12-11T16:22:46.670Z,96936.52
2017-12-11T16:25:14.139Z,96928.88
2017-12-11T16:27:41.599Z,96934.77
2017-12-11T16:30:09.071Z,96938.67
2017-12-11T16:32:36.530Z,96946.78
2017-12-11T16:35:04.040Z,96944.25
2017-12-11T16:37:31.480Z,96936.67
2017-12-11T16:39:58.948Z,96937.85
2017-12-11T16:42:26.386Z,96948.17
2017-12-11T16:44:53.836Z,96953.56
2017-12-11T16:47:21.314Z,96961.39
2017-12-11T16:49:48.771Z,96949.19
2017-12-11T16:52:16.235Z,96950.52
2017-12-11T16:54:43.711Z,96940.42
2017-12-11T16:57:11.176Z,96949.50
2017-12-11T16:59:38.624Z,96947.02
2017-12-11T17:02:06.087Z,96955.64
2017-12-11T17:04:33.546Z,96963.17
2017-12-11T17:07:01.020Z,96971.64
2017-12-11T17:09:28.470Z,96985.86
2017-12-11T17:11:55.930Z,96986.14
2017-12-11T17:14:23.376Z,96982.82
2017-12-11T17:16:50.847Z,96965.45
2017-12-11T17:19:18.295Z,96958.34
2017-12-11T17:21:45.728Z,96964.55
2017-12-11T17:24:13.195Z,96980.78
2017-12-11T17:26:40.646Z,96981.70
2017-12-11T17:29:08.106Z,96972.80
2017-12-11T17:31:35.538Z,96978.03
2017-12-11T17:34:03.031Z,96991.69
2017-12-11T17:36:30.475Z,97004.27
2017-12-11T17:41:31.843Z,97018.16
2017-12-11T17:43:59.484Z,97022.13
2017-12-11T17:46:26.951Z,97005.36
2017-12-11T17:48:54.419Z,97018.09
2017-12-11T17:51:21.863Z,97021.17
2017-12-11T17:53:49.327Z,97022.30
2017-12-11T17:56:16.774Z,97027.56
2017-12-11T17:58:48.122Z,97043.98
2017-12-11T18:01:15.578Z,97049.75
2017-12-11T18:03:43.068Z,97060.41
2017-12-11T18:06:10.554Z,97056.88
2017-12-11T18:08:38.000Z,97068.34
2017-12-11T18:11:05.465Z,97068.29
2017-12-11T18:13:32.899Z,97051.56
2017-12-11T18:16:00.368Z,97055.39
2017-12-11T18:18:27.803Z,97037.83
2017-12-11T18:20:55.356Z,97032.00
2017-12-11T18:23:22.808Z,97025.44
2017-12-11T18:25:50.347Z,97030.50
2017-12-11T18:28:17.805Z,97033.75
2017-12-11T18:30:45.260Z,97043.69
2017-12-11T18:33:12.700Z,97051.00
2017-12-11T18:35:40.175Z,97053.08
2017-12-11T18:38:07.614Z,97060.66
2017-12-11T18:40:35.053Z,97068.69
2017-12-11T18:43:02.556Z,97066.00
2017-12-11T18:45:30.008Z,97059.52
2017-12-11T18:47:57.488Z,97073.30
2017-12-11T18:50:24.930Z,97075.42
2017-12-11T18:52:52.387Z,97072.05
2017-12-11T18:55:19.827Z,97071.50
2017-12-11T18:57:47.316Z,97067.77
2017-12-11T19:00:14.768Z,97074.04
2017-12-11T19:02:42.292Z,97066.91
2017-12-11T19:05:09.773Z,97068.66
2017-12-11T19:07:37.236Z,97062.78
2017-12-11T19:10:04.761Z,97056.09
2017-12-11T19:12:32.235Z,97045.98
2017-12-11T19:14:59.708Z,97047.16
2017-12-11T19:17:27.190Z,97055.41
2017-12-11T19:19:54.627Z,97080.58
2017-12-11T19:22:22.081Z,97081.51
2017-12-11T19:24:49.515Z,97086.80
2017-12-11T19:27:16.984Z,97093.48
2017-12-11T19:29:44.433Z,97106.23
2017-12-11T19:32:12.034Z,97082.51
2017-12-11T19:34:39.491Z,97083.12
2017-12-11T19:37:06.964Z,97073.17
2017-12-11T19:39:34.434Z,97092.03
2017-12-11T19:42:01.883Z,97096.91
2017-12-11T19:44:29.367Z,97096.05
2017-12-11T19:46:56.808Z,97110.83
2017-12-11T19:49:24.268Z,97096.96
2017-12-11T19:51:51.734Z,97117.23
2017-12-11T19:54:19.191Z,97129.84
2017-12-11T19:56:46.623Z,97116.52
2017-12-11T19:59:14.118Z,97132.02
2017-12-11T20:01:41.556Z,97126.00
2017-12-11T20:04:09.043Z,97127.56
2017-12-11T20:06:36.494Z,97134.73
2017-12-11T20:09:03.931Z,97127.23
2017-12-11T20:11:31.388Z,97146.50
2017-12-11T20:13:58.823Z,97159.36
2017-12-11T20:16:26.282Z,97147.67
2017-12-11T20:18:53.740Z,97172.41
2017-12-11T20:21:21.199Z,97177.59
2017-12-11T20:23:48.640Z,97180.97
2017-12-11T20:26:16.090Z,97189.83
2017-12-11T20:28:43.526Z,97188.98
2017-12-11T20:31:11.037Z,97192.05
2017-12-11T20:33:38.512Z,97200.48
2017-12-11T20:36:05.967Z,97217.31
2017-12-11T20:38:33.431Z,97223.84
2017-12-11T20:41:00.921Z,97230.55
2017-12-11T20:43:28.384Z,97250.89
2017-12-11T20:45:55.824Z,97266.87
2017-12-11T20:48:23.301Z,97273.44
2017-12-11T20:50:50.751Z,97278.75
2017-12-11T20:53:18.216Z,97274.02
2017-12-11T20:55:45.704Z,97265.57
2017-12-11T20:58:13.173Z,97275.81
2017-12-11T21:00:40.617Z,97292.45
2017-12-11T21:03:08.091Z,97290.40
2017-12-11T21:05:35.522Z,97286.31
2017-12-11T21:08:03.000Z,97289.06
2017-12-11T21:10:30.451Z,97297.55
2017-12-11T21:12:57.893Z,97290.64
2017-12-11T21:15:25.463Z,97307.75
2017-12-11T21:17:52.951Z,97309.69
2017-12-11T21:20:20.568Z,97311.50
2017-12-11T21:22:48.008Z,97306.80
2017-12-11T21:25:15.468Z,97311.75
2017-12-11T21:27:42.907Z,97296.67
2017-12-11T21:30:10.380Z,97289.08
2017-12-11T21:32:37.815Z,97299.07
2017-12-11T21:35:05.273Z,97308.23
2017-12-11T21:37:32.745Z,97312.61
2017-12-11T21:40:00.194Z,97317.27
2017-12-11T21:42:27.636Z,97314.30
2017-12-11T21:44:55.096Z,97310.27
2017-12-11T21:47:22.542Z,97304.69
2017-12-11T21:49:49.999Z,97341.48
2017-12-11T21:52:17.450Z,97341.06
2017-12-11T21:54:44.912Z,97330.95
2017-12-11T21:57:12.368Z,97343.23
2017-12-11T21:59:39.808Z,97350.95
2017-12-11T22:02:07.331Z,97367.45
2017-12-11T22:04:34.771Z,97391.73
2017-12-11T22:07:02.230Z,97378.66
2017-12-11T22:09:29.672Z,97384.64
2017-12-11T22:11:57.186Z,97383.16
2017-12-11T22:14:24.600Z,97393.30
2017-12-11T22:16:52.061Z,97390.23
2017-12-11T22:19:19.498Z,97407.42
2017-12-11T22:21:46.971Z,97398.06
2017-12-11T22:24:16.206Z,97406.20
2017-12-11T22:26:43.659Z,97410.98
2017-12-11T22:29:11.099Z,97407.39
2017-12-11T22:31:38.555Z,97413.60
2017-12-11T22:34:05.996Z,97414.67
2017-12-11T22:36:33.479Z,97424.05
2017-12-11T22:39:00.926Z,97433.34
2017-12-11T22:41:28.360Z,97427.14
2017-12-11T22:43:55.840Z,97448.41
2017-12-11T22:46:23.307Z,97465.48
2017-12-11T22:48:50.767Z,97464.88
2017-12-11T22:51:18.205Z,97428.58
2017-12-11T22:53:45.662Z,97453.70
2017-12-11T22:56:13.115Z,97465.17
2017-12-11T22:58:40.579Z,97478.53
2017-12-11T23:01:08.020Z,97460.27
2017-12-11T23:03:35.479Z,97460.64
2017-12-11T23:06:02.919Z,97459.55
2017-12-11T23:08:30.419Z,97472.61
2017-12-11T23:10:57.857Z,97462.66
2017-12-11T23:13:25.316Z,97472.36
2017-12-11T23:15:52.755Z,97472.83
2017-12-11T23:18:20.202Z,97470.64
2017-12-11T23:20:47.643Z,97477.11
2017-12-11T23:23:15.137Z,97475.36
2017-12-11T23:25:42.592Z,97494.80
2017-12-11T23:28:10.031Z,97518.17
2017-12-11T23:30:37.540Z,97522.55
2017-12-11T23:33:04.980Z,97526.53
2017-12-11T23:35:32.435Z,97534.98
2017-12-11T23:37:59.883Z,97534.82
2017-12-11T23:40:27.348Z,97552.09
2017-12-11T23:42:54.800Z,97558.27
2017-12-11T23:45:22.263Z,97560.11
2017-12-11T23:47:49.700Z,97568.39
2017-12-11T23:50:17.150Z,97567.52
2017-12-11T23:52:44.591Z,97587.37
2017-12-11T23:55:12.060Z,97593.27
2017-12-11T23:57:39.502Z,97603.92
